MSC Brianna — 3FXG7 — position and weather

sailwx.info

Track history (hours):
 
Tides and Currents Weather Stations Pressure Air Temp Water Temp Dewpoint Dewpoint Depression Visibility Wind Speed Wind Dir Waves Ship Positions

MSC Brianna

Last reported at 2016-May-31 09:33 UTC. Time now 2016-May-31 10:04 UTC.
Position S 32°55' E 151°46'.

Length 245 m; draft 12.4 m.

Type: Ship (hazmat cat A). MMSI: 351766000.

Date/timePositionNaut miles runAvg speedWind from/ knotsBaromVisibWave heightAir tempDewpointWater temp
2016-May-31 09:33S 32°55' E 151°46'1 1.0
2016-May-31 08:32S 32°54' E 151°46'0 0.0
2016-May-31 07:26S 32°54' E 151°46'1 0.1
2016-May-30 19:34S 32°55' E 151°46'7 5.6
2016-May-30 18:19S 33°01' E 151°49'4 0.2
2016-May-29 23:16S 32°58' E 151°49'5 7.1
2016-May-29 22:34S 32°57' E 151°55'8 8.1
2016-May-29 21:33S 32°58' E 152°05'1211.8
2016-May-29 20:33S 32°53' E 152°17'1111.3
2016-May-29 19:33S 32°47' E 152°28'1111.5
2016-May-29 18:34S 32°38' E 152°37'29011.4
2016-May-28 17:05S 27°54' E 153°47'612.2
2016-May-28 16:33S 27°48' E 153°47'1211.9
2016-May-28 15:34S 27°36' E 153°45'1812.0
2016-May-28 14:05S 27°19' E 153°43'611.9
2016-May-28 13:32S 27°12' E 153°43'1212.5
2016-May-28 12:33S 26°60' E 153°41'1211.6
2016-May-28 11:31S 26°49' E 153°36'1313.0
2016-May-28 10:32S 26°44' E 153°23'12 9.1
2016-May-28 09:15S 26°48' E 153°11'710.7
2016-May-28 08:34S 26°55' E 153°12'1212.2
2016-May-28 07:33S 27°06' E 153°19'1110.6
2016-May-28 06:34S 27°16' E 153°16'10 9.7
2016-May-28 05:33S 27°23' E 153°09'0 0.1
2016-May-28 04:32S 27°23' E 153°09'0 0.0
2016-May-28 03:32S 27°23' E 153°09'0 0.0
2016-May-28 02:32S 27°23' E 153°09'0 0.0
2016-May-28 01:32S 27°23' E 153°09'0 0.0
2016-May-28 00:32S 27°23' E 153°09'0 0.0
2016-May-27 23:32S 27°23' E 153°09'0 0.0
2016-May-27 22:32S 27°23' E 153°09'0 0.0
2016-May-27 21:32S 27°23' E 153°09'0 0.0
2016-May-27 20:32S 27°23' E 153°09'0 0.0
2016-May-27 19:32S 27°23' E 153°09'0 0.0
2016-May-27 18:32S 27°23' E 153°09'0 0.0
2016-May-27 17:32S 27°23' E 153°09'0 0.0
2016-May-27 16:32S 27°23' E 153°09'0 0.0
2016-May-27 15:32S 27°23' E 153°09'0 0.0
2016-May-27 14:29S 27°23' E 153°09'0 0.0
2016-May-27 13:29S 27°23' E 153°09'0 0.0
2016-May-27 12:32S 27°23' E 153°09'0 0.0
2016-May-27 11:32S 27°23' E 153°09'0 0.0
2016-May-27 10:32S 27°23' E 153°09'0 0.0
2016-May-27 09:32S 27°23' E 153°09'0 0.0
2016-May-27 08:29S 27°23' E 153°09'0 0.0
2016-May-27 07:32S 27°23' E 153°09'0 0.0
2016-May-27 06:32S 27°23' E 153°09'0 0.0
2016-May-27 05:32S 27°23' E 153°09'0 0.0
2016-May-27 04:32S 27°23' E 153°09'0 0.0
2016-May-27 03:32S 27°23' E 153°09'0 0.0
2016-May-27 02:32S 27°23' E 153°09'0 0.0
2016-May-27 01:32S 27°23' E 153°09'0 0.0
2016-May-27 00:32S 27°23' E 153°09'0 0.0
2016-May-26 23:32S 27°23' E 153°09'0 0.1
2016-May-26 22:34S 27°23' E 153°09'3 2.9
2016-May-26 21:32S 27°26' E 153°07'0 0.0
2016-May-26 20:32S 27°26' E 153°07'0 0.0
2016-May-26 19:29S 27°26' E 153°07'0 0.0
2016-May-26 18:32S 27°26' E 153°07'0 0.0
2016-May-26 17:32S 27°26' E 153°07'0 0.0
2016-May-26 16:32S 27°26' E 153°07'0 0.0
2016-May-26 15:32S 27°26' E 153°07'0 0.0
2016-May-26 14:29S 27°26' E 153°07'0 0.0
2016-May-26 13:32S 27°26' E 153°07'0 0.0
2016-May-26 12:26S 27°26' E 153°07'0 0.0
2016-May-26 11:32S 27°26' E 153°07'0 0.0
2016-May-26 10:32S 27°26' E 153°07'0 0.0
2016-May-26 09:29S 27°26' E 153°07'0 0.0
2016-May-26 08:29S 27°26' E 153°07'0 0.0
2016-May-26 07:29S 27°26' E 153°07'0 0.0
2016-May-26 06:32S 27°26' E 153°07'0 0.0
2016-May-26 05:32S 27°26' E 153°07'0 0.0
2016-May-26 04:32S 27°26' E 153°07'0 0.0
2016-May-26 03:32S 27°26' E 153°07'0 0.0
2016-May-26 02:32S 27°26' E 153°07'0 0.0
2016-May-26 01:32S 27°26' E 153°07'0 0.0
2016-May-26 00:32S 27°26' E 153°07'0 0.0
2016-May-25 23:32S 27°26' E 153°07'0 0.0
2016-May-25 22:32S 27°26' E 153°07'0 0.0
2016-May-25 21:32S 27°26' E 153°07'0 0.0
2016-May-25 20:32S 27°26' E 153°07'0 0.0
2016-May-25 19:32S 27°26' E 153°07'0 0.0
2016-May-25 18:32S 27°26' E 153°07'0 0.0
2016-May-25 17:29S 27°26' E 153°07'0 0.0
2016-May-25 16:32S 27°26' E 153°07'0 0.0
2016-May-25 15:32S 27°26' E 153°07'0 0.0
2016-May-25 14:32S 27°26' E 153°07'0 0.0
2016-May-25 13:32S 27°26' E 153°07'0 0.0
2016-May-25 12:32S 27°26' E 153°07'0 0.0
2016-May-25 11:32S 27°26' E 153°07'0 0.0
2016-May-25 10:32S 27°26' E 153°07'0 0.0
2016-May-25 09:32S 27°26' E 153°07'0 0.0
2016-May-25 08:32S 27°26' E 153°07'0 0.0
2016-May-25 07:32S 27°26' E 153°07'0 0.0
2016-May-25 06:32S 27°26' E 153°07'0 0.0
2016-May-25 05:32S 27°26' E 153°07'0 0.0
2016-May-25 04:32S 27°26' E 153°07'0 0.0
2016-May-25 03:32S 27°26' E 153°07'1 0.6
2016-May-25 02:34S 27°25' E 153°08'9 9.1
2016-May-25 01:33S 27°18' E 153°13'1110.6
2016-May-25 00:33S 27°10' E 153°21'1110.9
2016-May-24 23:34S 27°00' E 153°15'1212.1
2016-May-24 22:34S 26°49' E 153°10'8 8.5
2016-May-24 21:34S 26°41' E 153°14'1010.3
2016-May-24 20:34S 26°36' E 153°24'17 3.4
2016-May-24 15:30S 26°19' E 153°28'  
Track history (hours):
 
Tides and Currents Weather Stations Pressure Air Temp Water Temp Dewpoint Dewpoint Depression Visibility Wind Speed Wind Dir Waves Ship Positions

MSC Brianna

Last reported at 2016-May-31 09:33 UTC. Time now 2016-May-31 10:04 UTC.
Position S 32°55' E 151°46'.

Length 245 m; draft 12.4 m.

Type: Ship (hazmat cat A). MMSI: 351766000.

Date/timePositionNaut miles runAvg speedWind from/ knotsBaromVisibWave heightAir tempDewpointWater temp
2016-May-31 09:33S 32°55' E 151°46'1 1.0
2016-May-31 08:32S 32°54' E 151°46'0 0.0
2016-May-31 07:26S 32°54' E 151°46'1 0.1
2016-May-30 19:34S 32°55' E 151°46'7 5.6
2016-May-30 18:19S 33°01' E 151°49'4 0.2
2016-May-29 23:16S 32°58' E 151°49'5 7.1
2016-May-29 22:34S 32°57' E 151°55'8 8.1
2016-May-29 21:33S 32°58' E 152°05'1211.8
2016-May-29 20:33S 32°53' E 152°17'1111.3
2016-May-29 19:33S 32°47' E 152°28'1111.5
2016-May-29 18:34S 32°38' E 152°37'29011.4
2016-May-28 17:05S 27°54' E 153°47'612.2
2016-May-28 16:33S 27°48' E 153°47'1211.9
2016-May-28 15:34S 27°36' E 153°45'1812.0
2016-May-28 14:05S 27°19' E 153°43'611.9
2016-May-28 13:32S 27°12' E 153°43'1212.5
2016-May-28 12:33S 26°60' E 153°41'1211.6
2016-May-28 11:31S 26°49' E 153°36'1313.0
2016-May-28 10:32S 26°44' E 153°23'12 9.1
2016-May-28 09:15S 26°48' E 153°11'710.7
2016-May-28 08:34S 26°55' E 153°12'1212.2
2016-May-28 07:33S 27°06' E 153°19'1110.6
2016-May-28 06:34S 27°16' E 153°16'10 9.7
2016-May-28 05:33S 27°23' E 153°09'0 0.1
2016-May-28 04:32S 27°23' E 153°09'0 0.0
2016-May-28 03:32S 27°23' E 153°09'0 0.0
2016-May-28 02:32S 27°23' E 153°09'0 0.0
2016-May-28 01:32S 27°23' E 153°09'0 0.0
2016-May-28 00:32S 27°23' E 153°09'0 0.0
2016-May-27 23:32S 27°23' E 153°09'0 0.0
2016-May-27 22:32S 27°23' E 153°09'0 0.0
2016-May-27 21:32S 27°23' E 153°09'0 0.0
2016-May-27 20:32S 27°23' E 153°09'0 0.0
2016-May-27 19:32S 27°23' E 153°09'0 0.0
2016-May-27 18:32S 27°23' E 153°09'0 0.0
2016-May-27 17:32S 27°23' E 153°09'0 0.0
2016-May-27 16:32S 27°23' E 153°09'0 0.0
2016-May-27 15:32S 27°23' E 153°09'0 0.0
2016-May-27 14:29S 27°23' E 153°09'0 0.0
2016-May-27 13:29S 27°23' E 153°09'0 0.0
2016-May-27 12:32S 27°23' E 153°09'0 0.0
2016-May-27 11:32S 27°23' E 153°09'0 0.0
2016-May-27 10:32S 27°23' E 153°09'0 0.0
2016-May-27 09:32S 27°23' E 153°09'0 0.0
2016-May-27 08:29S 27°23' E 153°09'0 0.0
2016-May-27 07:32S 27°23' E 153°09'0 0.0
2016-May-27 06:32S 27°23' E 153°09'0 0.0
2016-May-27 05:32S 27°23' E 153°09'0 0.0
2016-May-27 04:32S 27°23' E 153°09'0 0.0
2016-May-27 03:32S 27°23' E 153°09'0 0.0
2016-May-27 02:32S 27°23' E 153°09'0 0.0
2016-May-27 01:32S 27°23' E 153°09'0 0.0
2016-May-27 00:32S 27°23' E 153°09'0 0.0
2016-May-26 23:32S 27°23' E 153°09'0 0.1
2016-May-26 22:34S 27°23' E 153°09'3 2.9
2016-May-26 21:32S 27°26' E 153°07'0 0.0
2016-May-26 20:32S 27°26' E 153°07'0 0.0
2016-May-26 19:29S 27°26' E 153°07'0 0.0
2016-May-26 18:32S 27°26' E 153°07'0 0.0
2016-May-26 17:32S 27°26' E 153°07'0 0.0
2016-May-26 16:32S 27°26' E 153°07'0 0.0
2016-May-26 15:32S 27°26' E 153°07'0 0.0
2016-May-26 14:29S 27°26' E 153°07'0 0.0
2016-May-26 13:32S 27°26' E 153°07'0 0.0
2016-May-26 12:26S 27°26' E 153°07'0 0.0
2016-May-26 11:32S 27°26' E 153°07'0 0.0
2016-May-26 10:32S 27°26' E 153°07'0 0.0
2016-May-26 09:29S 27°26' E 153°07'0 0.0
2016-May-26 08:29S 27°26' E 153°07'0 0.0
2016-May-26 07:29S 27°26' E 153°07'0 0.0
2016-May-26 06:32S 27°26' E 153°07'0 0.0
2016-May-26 05:32S 27°26' E 153°07'0 0.0
2016-May-26 04:32S 27°26' E 153°07'0 0.0
2016-May-26 03:32S 27°26' E 153°07'0 0.0
2016-May-26 02:32S 27°26' E 153°07'0 0.0
2016-May-26 01:32S 27°26' E 153°07'0 0.0
2016-May-26 00:32S 27°26' E 153°07'0 0.0
2016-May-25 23:32S 27°26' E 153°07'0 0.0
2016-May-25 22:32S 27°26' E 153°07'0 0.0
2016-May-25 21:32S 27°26' E 153°07'0 0.0
2016-May-25 20:32S 27°26' E 153°07'0 0.0
2016-May-25 19:32S 27°26' E 153°07'0 0.0
2016-May-25 18:32S 27°26' E 153°07'0 0.0
2016-May-25 17:29S 27°26' E 153°07'0 0.0
2016-May-25 16:32S 27°26' E 153°07'0 0.0
2016-May-25 15:32S 27°26' E 153°07'0 0.0
2016-May-25 14:32S 27°26' E 153°07'0 0.0
2016-May-25 13:32S 27°26' E 153°07'0 0.0
2016-May-25 12:32S 27°26' E 153°07'0 0.0
2016-May-25 11:32S 27°26' E 153°07'0 0.0
2016-May-25 10:32S 27°26' E 153°07'0 0.0
2016-May-25 09:32S 27°26' E 153°07'0 0.0
2016-May-25 08:32S 27°26' E 153°07'0 0.0
2016-May-25 07:32S 27°26' E 153°07'0 0.0
2016-May-25 06:32S 27°26' E 153°07'0 0.0
2016-May-25 05:32S 27°26' E 153°07'0 0.0
2016-May-25 04:32S 27°26' E 153°07'0 0.0
2016-May-25 03:32S 27°26' E 153°07'1 0.6
2016-May-25 02:34S 27°25' E 153°08'9 9.1
2016-May-25 01:33S 27°18' E 153°13'1110.6
2016-May-25 00:33S 27°10' E 153°21'1110.9
2016-May-24 23:34S 27°00' E 153°15'1212.1
2016-May-24 22:34S 26°49' E 153°10'8 8.5
2016-May-24 21:34S 26°41' E 153°14'1010.3
2016-May-24 20:34S 26°36' E 153°24'17 3.4
2016-May-24 15:30S 26°19' E 153°28'  

Dump ship's entire track history